sensor_id;sensor_type;location;lat;lon;timestamp;temperature;humidity
38726;DHT22;24474;48.906;8.808;2023-03-19T00:00:17;9.80;99.90
38726;DHT22;24474;48.906;8.808;2023-03-19T00:02:45;9.70;99.90
38726;DHT22;24474;48.906;8.808;2023-03-19T00:05:17;9.70;99.90
38726;DHT22;24474;48.906;8.808;2023-03-19T00:07:44;9.70;99.90
38726;DHT22;24474;48.906;8.808;2023-03-19T00:10:10;9.70;99.90
38726;DHT22;24474;48.906;8.808;2023-03-19T00:12:37;9.70;99.90
38726;DHT22;24474;48.906;8.808;2023-03-19T00:15:04;9.70;99.90
38726;DHT22;24474;48.906;8.808;2023-03-19T00:17:31;9.70;99.90
38726;DHT22;24474;48.906;8.808;2023-03-19T00:20:00;9.70;99.90
38726;DHT22;24474;48.906;8.808;2023-03-19T00:22:26;9.70;99.90
38726;DHT22;24474;48.906;8.808;2023-03-19T00:24:53;9.70;99.90
38726;DHT22;24474;48.906;8.808;2023-03-19T00:27:20;9.70;99.90
38726;DHT22;24474;48.906;8.808;2023-03-19T00:29:47;9.70;99.90
38726;DHT22;24474;48.906;8.808;2023-03-19T00:32:14;9.80;99.90
38726;DHT22;24474;48.906;8.808;2023-03-19T00:34:42;9.80;99.90
38726;DHT22;24474;48.906;8.808;2023-03-19T00:37:07;9.80;99.90
38726;DHT22;24474;48.906;8.808;2023-03-19T00:39:34;9.80;99.90
38726;DHT22;24474;48.906;8.808;2023-03-19T00:42:01;9.70;99.90
38726;DHT22;24474;48.906;8.808;2023-03-19T00:44:31;9.80;99.90
38726;DHT22;24474;48.906;8.808;2023-03-19T00:46:58;9.80;99.90
38726;DHT22;24474;48.906;8.808;2023-03-19T00:49:24;9.80;99.90
38726;DHT22;24474;48.906;8.808;2023-03-19T00:51:51;9.80;99.90
38726;DHT22;24474;48.906;8.808;2023-03-19T00:54:18;9.80;99.90
38726;DHT22;24474;48.906;8.808;2023-03-19T00:56:46;9.70;99.90
38726;DHT22;24474;48.906;8.808;2023-03-19T00:59:13;9.70;99.90
38726;DHT22;24474;48.906;8.808;2023-03-19T01:01:40;9.70;99.90
38726;DHT22;24474;48.906;8.808;2023-03-19T01:04:07;9.80;99.90
38726;DHT22;24474;48.906;8.808;2023-03-19T01:06:34;9.80;99.90
38726;DHT22;24474;48.906;8.808;2023-03-19T01:09:02;9.80;99.90
38726;DHT22;24474;48.906;8.808;2023-03-19T01:11:29;9.80;99.90
38726;DHT22;24474;48.906;8.808;2023-03-19T01:13:56;9.80;99.90
38726;DHT22;24474;48.906;8.808;2023-03-19T01:16:23;9.80;99.90
38726;DHT22;24474;48.906;8.808;2023-03-19T01:18:50;9.80;99.90
38726;DHT22;24474;48.906;8.808;2023-03-19T01:21:18;9.80;99.90
38726;DHT22;24474;48.906;8.808;2023-03-19T01:23:45;9.80;99.90
38726;DHT22;24474;48.906;8.808;2023-03-19T01:26:12;9.80;99.90
38726;DHT22;24474;48.906;8.808;2023-03-19T01:28:39;9.70;99.90
38726;DHT22;24474;48.906;8.808;2023-03-19T01:31:06;9.70;99.90
38726;DHT22;24474;48.906;8.808;2023-03-19T01:33:34;9.60;99.90
38726;DHT22;24474;48.906;8.808;2023-03-19T01:36:00;9.70;99.90
38726;DHT22;24474;48.906;8.808;2023-03-19T01:38:33;9.60;99.90
38726;DHT22;24474;48.906;8.808;2023-03-19T01:41:00;9.70;99.90
38726;DHT22;24474;48.906;8.808;2023-03-19T01:43:28;9.70;99.90
38726;DHT22;24474;48.906;8.808;2023-03-19T01:48:50;9.70;99.90
38726;DHT22;24474;48.906;8.808;2023-03-19T01:51:23;9.70;99.90
38726;DHT22;24474;48.906;8.808;2023-03-19T01:53:55;9.70;99.90
38726;DHT22;24474;48.906;8.808;2023-03-19T01:56:25;9.80;99.90
38726;DHT22;24474;48.906;8.808;2023-03-19T01:58:56;9.80;99.90
38726;DHT22;24474;48.906;8.808;2023-03-19T02:01:24;9.80;99.90
38726;DHT22;24474;48.906;8.808;2023-03-19T02:03:51;9.80;99.90
38726;DHT22;24474;48.906;8.808;2023-03-19T02:06:22;9.80;99.90
38726;DHT22;24474;48.906;8.808;2023-03-19T02:08:49;9.80;99.90
38726;DHT22;24474;48.906;8.808;2023-03-19T02:11:18;9.80;99.90
38726;DHT22;24474;48.906;8.808;2023-03-19T02:13:46;9.80;99.90
38726;DHT22;24474;48.906;8.808;2023-03-19T02:16:14;9.80;99.90
38726;DHT22;24474;48.906;8.808;2023-03-19T02:18:41;9.80;99.90
38726;DHT22;24474;48.906;8.808;2023-03-19T02:21:17;9.80;99.90
38726;DHT22;24474;48.906;8.808;2023-03-19T02:24:22;9.80;99.90
38726;DHT22;24474;48.906;8.808;2023-03-19T02:26:51;9.80;99.90
38726;DHT22;24474;48.906;8.808;2023-03-19T02:29:17;9.70;99.90
38726;DHT22;24474;48.906;8.808;2023-03-19T02:31:45;9.70;99.90
38726;DHT22;24474;48.906;8.808;2023-03-19T02:36:53;9.70;99.90
38726;DHT22;24474;48.906;8.808;2023-03-19T02:39:29;9.70;99.90
38726;DHT22;24474;48.906;8.808;2023-03-19T02:41:58;9.70;99.90
38726;DHT22;24474;48.906;8.808;2023-03-19T02:44:26;9.70;99.90
38726;DHT22;24474;48.906;8.808;2023-03-19T02:46:52;9.80;99.90
38726;DHT22;24474;48.906;8.808;2023-03-19T02:49:18;9.70;99.90
38726;DHT22;24474;48.906;8.808;2023-03-19T02:51:44;9.80;99.90
38726;DHT22;24474;48.906;8.808;2023-03-19T02:54:11;9.80;99.90
38726;DHT22;24474;48.906;8.808;2023-03-19T02:56:39;9.70;99.90
38726;DHT22;24474;48.906;8.808;2023-03-19T02:59:06;9.80;99.90
38726;DHT22;24474;48.906;8.808;2023-03-19T03:01:33;9.70;99.90
38726;DHT22;24474;48.906;8.808;2023-03-19T03:04:00;9.70;99.90
38726;DHT22;24474;48.906;8.808;2023-03-19T03:06:26;9.70;99.90
38726;DHT22;24474;48.906;8.808;2023-03-19T03:08:53;9.70;99.90
38726;DHT22;24474;48.906;8.808;2023-03-19T03:11:21;9.70;99.90
38726;DHT22;24474;48.906;8.808;2023-03-19T03:13:48;9.70;99.90
38726;DHT22;24474;48.906;8.808;2023-03-19T03:16:14;9.70;99.90
38726;DHT22;24474;48.906;8.808;2023-03-19T03:18:41;9.60;99.90
38726;DHT22;24474;48.906;8.808;2023-03-19T03:21:08;9.70;99.90
38726;DHT22;24474;48.906;8.808;2023-03-19T03:23:36;9.60;99.90
38726;DHT22;24474;48.906;8.808;2023-03-19T03:26:03;9.50;99.90
38726;DHT22;24474;48.906;8.808;2023-03-19T03:28:29;9.60;99.90
38726;DHT22;24474;48.906;8.808;2023-03-19T03:30:58;9.50;99.90
38726;DHT22;24474;48.906;8.808;2023-03-19T03:33:25;9.50;99.90
38726;DHT22;24474;48.906;8.808;2023-03-19T03:35:51;9.50;99.90
38726;DHT22;24474;48.906;8.808;2023-03-19T03:38:18;9.60;99.90
38726;DHT22;24474;48.906;8.808;2023-03-19T03:40:49;9.60;99.90
38726;DHT22;24474;48.906;8.808;2023-03-19T03:43:15;9.60;99.90
38726;DHT22;24474;48.906;8.808;2023-03-19T03:45:43;9.60;99.90
38726;DHT22;24474;48.906;8.808;2023-03-19T03:48:09;9.60;99.90
38726;DHT22;24474;48.906;8.808;2023-03-19T03:50:36;9.60;99.90
38726;DHT22;24474;48.906;8.808;2023-03-19T03:53:03;9.60;99.90
38726;DHT22;24474;48.906;8.808;2023-03-19T03:55:30;9.60;99.90
38726;DHT22;24474;48.906;8.808;2023-03-19T03:57:57;9.60;99.90
38726;DHT22;24474;48.906;8.808;2023-03-19T04:00:24;9.60;99.90
38726;DHT22;24474;48.906;8.808;2023-03-19T04:02:52;9.70;99.90
38726;DHT22;24474;48.906;8.808;2023-03-19T04:05:18;9.70;99.90
38726;DHT22;24474;48.906;8.808;2023-03-19T04:07:45;9.70;99.90
38726;DHT22;24474;48.906;8.808;2023-03-19T04:10:11;9.60;99.90
38726;DHT22;24474;48.906;8.808;2023-03-19T04:12:39;9.60;99.90
38726;DHT22;24474;48.906;8.808;2023-03-19T04:15:06;9.60;99.90
38726;DHT22;24474;48.906;8.808;2023-03-19T04:17:33;9.60;99.90
38726;DHT22;24474;48.906;8.808;2023-03-19T04:20:01;9.60;99.90
38726;DHT22;24474;48.906;8.808;2023-03-19T04:22:28;9.60;99.90
38726;DHT22;24474;48.906;8.808;2023-03-19T04:24:55;9.60;99.90
38726;DHT22;24474;48.906;8.808;2023-03-19T04:27:22;9.60;99.90
38726;DHT22;24474;48.906;8.808;2023-03-19T04:29:48;9.60;99.90
38726;DHT22;24474;48.906;8.808;2023-03-19T04:32:14;9.60;99.90
38726;DHT22;24474;48.906;8.808;2023-03-19T04:34:41;9.60;99.90
38726;DHT22;24474;48.906;8.808;2023-03-19T04:37:08;9.60;99.90
38726;DHT22;24474;48.906;8.808;2023-03-19T04:39:38;9.50;99.90
38726;DHT22;24474;48.906;8.808;2023-03-19T04:42:04;9.50;99.90
38726;DHT22;24474;48.906;8.808;2023-03-19T04:44:30;9.50;99.90
38726;DHT22;24474;48.906;8.808;2023-03-19T04:46:57;9.50;99.90
38726;DHT22;24474;48.906;8.808;2023-03-19T04:49:24;9.50;99.90
38726;DHT22;24474;48.906;8.808;2023-03-19T04:51:52;9.50;99.90
38726;DHT22;24474;48.906;8.808;2023-03-19T04:54:18;9.60;99.90
38726;DHT22;24474;48.906;8.808;2023-03-19T04:56:47;9.50;99.90
38726;DHT22;24474;48.906;8.808;2023-03-19T04:59:13;9.50;99.90
38726;DHT22;24474;48.906;8.808;2023-03-19T05:01:39;9.50;99.90
38726;DHT22;24474;48.906;8.808;2023-03-19T05:04:06;9.50;99.90
38726;DHT22;24474;48.906;8.808;2023-03-19T05:06:34;9.50;99.90
38726;DHT22;24474;48.906;8.808;2023-03-19T05:09:01;9.50;99.90
38726;DHT22;24474;48.906;8.808;2023-03-19T05:11:27;9.60;99.90
38726;DHT22;24474;48.906;8.808;2023-03-19T05:13:53;9.50;99.90
38726;DHT22;24474;48.906;8.808;2023-03-19T05:16:20;9.50;99.90
38726;DHT22;24474;48.906;8.808;2023-03-19T05:18:47;9.60;99.90
38726;DHT22;24474;48.906;8.808;2023-03-19T05:21:14;9.70;99.90
38726;DHT22;24474;48.906;8.808;2023-03-19T05:23:41;9.60;99.90
38726;DHT22;24474;48.906;8.808;2023-03-19T05:26:08;9.60;99.90
38726;DHT22;24474;48.906;8.808;2023-03-19T05:28:35;9.60;99.90
38726;DHT22;24474;48.906;8.808;2023-03-19T05:31:03;9.60;99.90
38726;DHT22;24474;48.906;8.808;2023-03-19T05:33:30;9.60;99.90
38726;DHT22;24474;48.906;8.808;2023-03-19T05:35:57;9.60;99.90
38726;DHT22;24474;48.906;8.808;2023-03-19T05:38:24;9.60;99.90
38726;DHT22;24474;48.906;8.808;2023-03-19T05:40:52;9.60;99.90
38726;DHT22;24474;48.906;8.808;2023-03-19T05:43:19;9.70;99.90
38726;DHT22;24474;48.906;8.808;2023-03-19T05:45:50;9.70;99.90
38726;DHT22;24474;48.906;8.808;2023-03-19T05:48:20;9.60;99.90
38726;DHT22;24474;48.906;8.808;2023-03-19T05:50:47;9.60;99.90
38726;DHT22;24474;48.906;8.808;2023-03-19T05:53:14;9.60;99.90
38726;DHT22;24474;48.906;8.808;2023-03-19T05:55:41;9.60;99.90
38726;DHT22;24474;48.906;8.808;2023-03-19T05:58:09;9.70;99.90
38726;DHT22;24474;48.906;8.808;2023-03-19T06:00:36;9.60;99.90
38726;DHT22;24474;48.906;8.808;2023-03-19T06:03:03;9.70;99.90
38726;DHT22;24474;48.906;8.808;2023-03-19T06:05:29;9.70;99.90
38726;DHT22;24474;48.906;8.808;2023-03-19T06:07:55;9.70;99.90
38726;DHT22;24474;48.906;8.808;2023-03-19T06:10:22;9.70;99.90
38726;DHT22;24474;48.906;8.808;2023-03-19T06:12:49;9.70;99.90
38726;DHT22;24474;48.906;8.808;2023-03-19T06:15:16;9.70;99.90
38726;DHT22;24474;48.906;8.808;2023-03-19T06:17:42;9.80;99.90
38726;DHT22;24474;48.906;8.808;2023-03-19T06:20:10;9.70;99.90
38726;DHT22;24474;48.906;8.808;2023-03-19T06:22:36;9.80;99.90
38726;DHT22;24474;48.906;8.808;2023-03-19T06:25:03;9.80;99.90
38726;DHT22;24474;48.906;8.808;2023-03-19T06:27:30;9.80;99.90
38726;DHT22;24474;48.906;8.808;2023-03-19T06:29:56;9.80;99.90
38726;DHT22;24474;48.906;8.808;2023-03-19T06:32:23;9.80;99.90
38726;DHT22;24474;48.906;8.808;2023-03-19T06:34:50;9.80;99.90
38726;DHT22;24474;48.906;8.808;2023-03-19T06:37:16;9.80;99.90
38726;DHT22;24474;48.906;8.808;2023-03-19T06:39:44;9.80;99.90
38726;DHT22;24474;48.906;8.808;2023-03-19T06:42:11;9.80;99.90
38726;DHT22;24474;48.906;8.808;2023-03-19T06:44:38;9.80;99.90
38726;DHT22;24474;48.906;8.808;2023-03-19T06:47:06;9.80;99.90
38726;DHT22;24474;48.906;8.808;2023-03-19T06:49:34;9.80;99.90
38726;DHT22;24474;48.906;8.808;2023-03-19T06:52:00;9.80;99.90
38726;DHT22;24474;48.906;8.808;2023-03-19T06:54:27;9.90;99.90
38726;DHT22;24474;48.906;8.808;2023-03-19T06:56:53;9.90;99.90
38726;DHT22;24474;48.906;8.808;2023-03-19T06:59:20;9.90;99.90
38726;DHT22;24474;48.906;8.808;2023-03-19T07:01:47;10.00;99.90
38726;DHT22;24474;48.906;8.808;2023-03-19T07:04:14;10.00;99.90
38726;DHT22;24474;48.906;8.808;2023-03-19T07:06:41;10.00;99.90
38726;DHT22;24474;48.906;8.808;2023-03-19T07:09:08;10.10;99.90
38726;DHT22;24474;48.906;8.808;2023-03-19T07:11:35;10.20;99.90
38726;DHT22;24474;48.906;8.808;2023-03-19T07:14:03;10.30;99.90
38726;DHT22;24474;48.906;8.808;2023-03-19T07:16:29;10.30;99.90
38726;DHT22;24474;48.906;8.808;2023-03-19T07:18:56;10.30;99.90
38726;DHT22;24474;48.906;8.808;2023-03-19T07:21:22;10.30;99.90
38726;DHT22;24474;48.906;8.808;2023-03-19T07:23:48;10.40;99.90
38726;DHT22;24474;48.906;8.808;2023-03-19T07:26:16;10.40;99.90
38726;DHT22;24474;48.906;8.808;2023-03-19T07:28:43;10.50;99.90
38726;DHT22;24474;48.906;8.808;2023-03-19T07:31:10;10.50;99.90
38726;DHT22;24474;48.906;8.808;2023-03-19T07:33:37;10.60;99.90
38726;DHT22;24474;48.906;8.808;2023-03-19T07:36:05;10.70;99.90
38726;DHT22;24474;48.906;8.808;2023-03-19T07:38:32;10.80;99.90
38726;DHT22;24474;48.906;8.808;2023-03-19T07:40:59;10.80;99.90
38726;DHT22;24474;48.906;8.808;2023-03-19T07:43:26;10.90;99.90
38726;DHT22;24474;48.906;8.808;2023-03-19T07:45:53;10.90;99.90
38726;DHT22;24474;48.906;8.808;2023-03-19T07:48:20;11.00;99.90
38726;DHT22;24474;48.906;8.808;2023-03-19T07:50:49;11.00;99.90
38726;DHT22;24474;48.906;8.808;2023-03-19T07:53:17;11.00;99.90
38726;DHT22;24474;48.906;8.808;2023-03-19T07:55:44;11.00;99.90
38726;DHT22;24474;48.906;8.808;2023-03-19T07:58:10;11.10;99.90
38726;DHT22;24474;48.906;8.808;2023-03-19T08:00:36;11.10;99.90
38726;DHT22;24474;48.906;8.808;2023-03-19T08:03:04;11.10;99.90
38726;DHT22;24474;48.906;8.808;2023-03-19T08:05:31;11.20;99.90
38726;DHT22;24474;48.906;8.808;2023-03-19T08:07:59;11.20;99.90
38726;DHT22;24474;48.906;8.808;2023-03-19T08:10:26;11.20;99.90
38726;DHT22;24474;48.906;8.808;2023-03-19T08:12:52;11.30;99.90
38726;DHT22;24474;48.906;8.808;2023-03-19T08:15:19;11.40;99.90
38726;DHT22;24474;48.906;8.808;2023-03-19T08:17:46;11.60;99.90
38726;DHT22;24474;48.906;8.808;2023-03-19T08:20:15;11.60;99.90
38726;DHT22;24474;48.906;8.808;2023-03-19T08:22:41;11.70;99.90
38726;DHT22;24474;48.906;8.808;2023-03-19T08:25:09;11.80;99.90
38726;DHT22;24474;48.906;8.808;2023-03-19T08:27:36;11.80;99.90
38726;DHT22;24474;48.906;8.808;2023-03-19T08:30:04;12.00;99.90
38726;DHT22;24474;48.906;8.808;2023-03-19T08:32:31;12.00;99.90
38726;DHT22;24474;48.906;8.808;2023-03-19T08:34:57;12.10;99.90
38726;DHT22;24474;48.906;8.808;2023-03-19T08:37:23;12.20;99.90
38726;DHT22;24474;48.906;8.808;2023-03-19T08:39:51;12.40;99.90
38726;DHT22;24474;48.906;8.808;2023-03-19T08:42:21;12.50;99.90
38726;DHT22;24474;48.906;8.808;2023-03-19T08:44:50;12.60;99.90
38726;DHT22;24474;48.906;8.808;2023-03-19T08:47:16;12.60;99.90
38726;DHT22;24474;48.906;8.808;2023-03-19T08:49:43;12.70;99.90
38726;DHT22;24474;48.906;8.808;2023-03-19T08:52:10;12.70;99.90
38726;DHT22;24474;48.906;8.808;2023-03-19T08:54:37;12.70;99.90
38726;DHT22;24474;48.906;8.808;2023-03-19T08:57:04;12.70;99.90
38726;DHT22;24474;48.906;8.808;2023-03-19T08:59:30;12.80;99.90
38726;DHT22;24474;48.906;8.808;2023-03-19T09:01:58;12.80;99.90
38726;DHT22;24474;48.906;8.808;2023-03-19T09:04:25;12.80;99.90
38726;DHT22;24474;48.906;8.808;2023-03-19T09:06:51;12.90;99.90
38726;DHT22;24474;48.906;8.808;2023-03-19T09:09:20;13.00;99.90
38726;DHT22;24474;48.906;8.808;2023-03-19T09:11:49;12.90;99.90
38726;DHT22;24474;48.906;8.808;2023-03-19T09:14:15;13.00;99.90
38726;DHT22;24474;48.906;8.808;2023-03-19T09:16:43;13.00;99.90
38726;DHT22;24474;48.906;8.808;2023-03-19T09:19:10;13.10;99.90
38726;DHT22;24474;48.906;8.808;2023-03-19T09:21:36;13.20;99.90
38726;DHT22;24474;48.906;8.808;2023-03-19T09:24:02;13.30;99.90
38726;DHT22;24474;48.906;8.808;2023-03-19T09:26:28;13.30;99.90
38726;DHT22;24474;48.906;8.808;2023-03-19T09:28:55;13.30;99.90
38726;DHT22;24474;48.906;8.808;2023-03-19T09:31:23;13.40;99.90
38726;DHT22;24474;48.906;8.808;2023-03-19T09:33:50;13.30;99.90
38726;DHT22;24474;48.906;8.808;2023-03-19T09:36:17;13.40;99.90
38726;DHT22;24474;48.906;8.808;2023-03-19T09:38:44;13.40;99.90
38726;DHT22;24474;48.906;8.808;2023-03-19T09:44:02;13.40;99.90
38726;DHT22;24474;48.906;8.808;2023-03-19T09:49:28;13.30;99.90
38726;DHT22;24474;48.906;8.808;2023-03-19T09:54:46;13.30;99.90
38726;DHT22;24474;48.906;8.808;2023-03-19T09:57:18;13.40;99.90
38726;DHT22;24474;48.906;8.808;2023-03-19T10:00:25;13.60;99.90
38726;DHT22;24474;48.906;8.808;2023-03-19T10:06:25;13.70;99.90
38726;DHT22;24474;48.906;8.808;2023-03-19T10:15:41;14.00;99.90
38726;DHT22;24474;48.906;8.808;2023-03-19T10:18:19;14.20;99.90
38726;DHT22;24474;48.906;8.808;2023-03-19T10:21:10;14.30;99.90
38726;DHT22;24474;48.906;8.808;2023-03-19T10:24:14;14.40;99.90
38726;DHT22;24474;48.906;8.808;2023-03-19T10:26:49;14.40;99.90
38726;DHT22;24474;48.906;8.808;2023-03-19T10:29:26;14.40;99.90
38726;DHT22;24474;48.906;8.808;2023-03-19T10:34:41;14.40;99.90
38726;DHT22;24474;48.906;8.808;2023-03-19T10:37:27;14.40;99.90
38726;DHT22;24474;48.906;8.808;2023-03-19T10:40:00;14.40;99.90
38726;DHT22;24474;48.906;8.808;2023-03-19T10:45:33;14.50;99.90
38726;DHT22;24474;48.906;8.808;2023-03-19T10:48:03;14.60;99.90
38726;DHT22;24474;48.906;8.808;2023-03-19T10:50:40;14.50;99.90
38726;DHT22;24474;48.906;8.808;2023-03-19T10:56:02;14.50;99.90
38726;DHT22;24474;48.906;8.808;2023-03-19T10:59:18;14.50;99.90
38726;DHT22;24474;48.906;8.808;2023-03-19T11:02:01;14.60;99.90
38726;DHT22;24474;48.906;8.808;2023-03-19T11:04:33;14.70;99.90
38726;DHT22;24474;48.906;8.808;2023-03-19T11:07:18;14.70;99.90
38726;DHT22;24474;48.906;8.808;2023-03-19T11:10:00;14.70;99.90
38726;DHT22;24474;48.906;8.808;2023-03-19T11:15:32;14.70;99.90
38726;DHT22;24474;48.906;8.808;2023-03-19T11:18:30;14.70;99.90
38726;DHT22;24474;48.906;8.808;2023-03-19T11:21:30;14.70;99.90
38726;DHT22;24474;48.906;8.808;2023-03-19T11:24:03;14.80;99.90
38726;DHT22;24474;48.906;8.808;2023-03-19T11:26:47;14.80;99.90
38726;DHT22;24474;48.906;8.808;2023-03-19T11:29:36;14.80;99.90
38726;DHT22;24474;48.906;8.808;2023-03-19T11:35:25;14.80;99.90
38726;DHT22;24474;48.906;8.808;2023-03-19T11:38:07;14.90;99.90
38726;DHT22;24474;48.906;8.808;2023-03-19T11:40:53;14.80;99.90
38726;DHT22;24474;48.906;8.808;2023-03-19T11:43:45;14.70;99.90
38726;DHT22;24474;48.906;8.808;2023-03-19T11:49:55;14.60;99.90
38726;DHT22;24474;48.906;8.808;2023-03-19T11:59:16;14.20;99.90
38726;DHT22;24474;48.906;8.808;2023-03-19T12:08:12;14.20;99.90
38726;DHT22;24474;48.906;8.808;2023-03-19T12:27:04;14.60;99.90
38726;DHT22;24474;48.906;8.808;2023-03-19T12:36:38;14.60;99.90
38726;DHT22;24474;48.906;8.808;2023-03-19T12:39:10;14.60;99.90
38726;DHT22;24474;48.906;8.808;2023-03-19T12:41:45;14.50;99.90
38726;DHT22;24474;48.906;8.808;2023-03-19T12:44:38;14.50;99.90
38726;DHT22;24474;48.906;8.808;2023-03-19T12:47:27;14.50;99.90
38726;DHT22;24474;48.906;8.808;2023-03-19T12:50:12;14.60;99.90
38726;DHT22;24474;48.906;8.808;2023-03-19T12:52:47;14.60;99.90
38726;DHT22;24474;48.906;8.808;2023-03-19T12:55:51;14.60;99.90
38726;DHT22;24474;48.906;8.808;2023-03-19T12:58:31;14.60;99.90
38726;DHT22;24474;48.906;8.808;2023-03-19T13:01:52;14.60;99.90
38726;DHT22;24474;48.906;8.808;2023-03-19T13:04:28;14.60;99.90
38726;DHT22;24474;48.906;8.808;2023-03-19T13:07:11;14.40;99.90
38726;DHT22;24474;48.906;8.808;2023-03-19T13:10:08;14.30;99.90
38726;DHT22;24474;48.906;8.808;2023-03-19T13:12:38;14.10;99.90
38726;DHT22;24474;48.906;8.808;2023-03-19T13:16:03;14.10;99.90
38726;DHT22;24474;48.906;8.808;2023-03-19T13:21:57;14.00;99.90
38726;DHT22;24474;48.906;8.808;2023-03-19T13:24:32;13.80;99.90
38726;DHT22;24474;48.906;8.808;2023-03-19T13:27:18;13.60;99.90
38726;DHT22;24474;48.906;8.808;2023-03-19T13:30:16;13.40;99.90
38726;DHT22;24474;48.906;8.808;2023-03-19T13:33:22;13.30;99.90
38726;DHT22;24474;48.906;8.808;2023-03-19T13:35:59;13.30;99.90
38726;DHT22;24474;48.906;8.808;2023-03-19T13:38:47;13.30;99.90
38726;DHT22;24474;48.906;8.808;2023-03-19T13:41:51;13.30;99.90
38726;DHT22;24474;48.906;8.808;2023-03-19T13:47:36;13.50;99.90
38726;DHT22;24474;48.906;8.808;2023-03-19T13:52:47;13.60;99.90
38726;DHT22;24474;48.906;8.808;2023-03-19T13:55:43;13.60;99.90
38726;DHT22;24474;48.906;8.808;2023-03-19T14:00:59;13.60;99.90
38726;DHT22;24474;48.906;8.808;2023-03-19T14:03:34;13.50;99.90
38726;DHT22;24474;48.906;8.808;2023-03-19T14:12:21;13.40;99.90
38726;DHT22;24474;48.906;8.808;2023-03-19T14:15:24;13.40;99.90
38726;DHT22;24474;48.906;8.808;2023-03-19T14:18:09;13.40;99.90
38726;DHT22;24474;48.906;8.808;2023-03-19T14:20:44;13.30;99.90
38726;DHT22;24474;48.906;8.808;2023-03-19T14:23:28;13.30;99.90
38726;DHT22;24474;48.906;8.808;2023-03-19T14:26:26;13.30;99.90
38726;DHT22;24474;48.906;8.808;2023-03-19T14:29:06;13.20;99.90
38726;DHT22;24474;48.906;8.808;2023-03-19T14:31:59;13.20;99.90
38726;DHT22;24474;48.906;8.808;2023-03-19T14:34:41;13.30;99.90
38726;DHT22;24474;48.906;8.808;2023-03-19T14:37:28;13.20;99.90
38726;DHT22;24474;48.906;8.808;2023-03-19T14:40:44;13.20;99.90
38726;DHT22;24474;48.906;8.808;2023-03-19T14:44:25;13.20;99.90
38726;DHT22;24474;48.906;8.808;2023-03-19T14:50:48;13.20;99.90
38726;DHT22;24474;48.906;8.808;2023-03-19T14:55:40;13.20;99.90
38726;DHT22;24474;48.906;8.808;2023-03-19T14:58:11;13.20;99.90
38726;DHT22;24474;48.906;8.808;2023-03-19T15:01:15;13.30;99.90
38726;DHT22;24474;48.906;8.808;2023-03-19T15:03:44;13.30;99.90
38726;DHT22;24474;48.906;8.808;2023-03-19T15:06:34;13.30;99.90
38726;DHT22;24474;48.906;8.808;2023-03-19T15:09:01;13.30;99.90
38726;DHT22;24474;48.906;8.808;2023-03-19T15:18:03;13.30;99.90
38726;DHT22;24474;48.906;8.808;2023-03-19T15:20:52;13.20;99.90
38726;DHT22;24474;48.906;8.808;2023-03-19T15:23:24;13.20;99.90
38726;DHT22;24474;48.906;8.808;2023-03-19T15:26:07;13.10;99.90
38726;DHT22;24474;48.906;8.808;2023-03-19T15:28:50;13.10;99.90
38726;DHT22;24474;48.906;8.808;2023-03-19T15:31:19;13.10;99.90
38726;DHT22;24474;48.906;8.808;2023-03-19T15:33:52;13.10;99.90
38726;DHT22;24474;48.906;8.808;2023-03-19T15:36:45;13.10;99.90
38726;DHT22;24474;48.906;8.808;2023-03-19T15:39:26;13.10;99.90
38726;DHT22;24474;48.906;8.808;2023-03-19T15:42:20;13.00;99.90
38726;DHT22;24474;48.906;8.808;2023-03-19T15:48:17;12.90;99.90
38726;DHT22;24474;48.906;8.808;2023-03-19T15:51:16;12.90;99.90
38726;DHT22;24474;48.906;8.808;2023-03-19T15:53:51;12.80;99.90
38726;DHT22;24474;48.906;8.808;2023-03-19T15:56:22;12.60;99.90
38726;DHT22;24474;48.906;8.808;2023-03-19T15:58:59;12.60;99.90
38726;DHT22;24474;48.906;8.808;2023-03-19T16:01:27;12.60;99.90
38726;DHT22;24474;48.906;8.808;2023-03-19T16:04:22;12.60;99.90
38726;DHT22;24474;48.906;8.808;2023-03-19T16:06:53;12.60;99.90
38726;DHT22;24474;48.906;8.808;2023-03-19T16:09:32;12.60;99.90
38726;DHT22;24474;48.906;8.808;2023-03-19T16:12:50;12.60;99.90
38726;DHT22;24474;48.906;8.808;2023-03-19T16:15:46;12.60;99.90
38726;DHT22;24474;48.906;8.808;2023-03-19T16:18:28;12.60;99.90
38726;DHT22;24474;48.906;8.808;2023-03-19T16:21:08;12.70;99.90
38726;DHT22;24474;48.906;8.808;2023-03-19T16:26:49;12.70;99.90
38726;DHT22;24474;48.906;8.808;2023-03-19T16:29:42;12.70;99.90
38726;DHT22;24474;48.906;8.808;2023-03-19T16:32:29;12.70;99.90
38726;DHT22;24474;48.906;8.808;2023-03-19T16:35:13;12.70;99.90
38726;DHT22;24474;48.906;8.808;2023-03-19T16:37:47;12.60;99.90
38726;DHT22;24474;48.906;8.808;2023-03-19T16:40:38;12.60;99.90
38726;DHT22;24474;48.906;8.808;2023-03-19T16:43:07;12.50;99.90
38726;DHT22;24474;48.906;8.808;2023-03-19T16:46:04;12.50;99.90
38726;DHT22;24474;48.906;8.808;2023-03-19T16:48:52;12.40;99.90
38726;DHT22;24474;48.906;8.808;2023-03-19T16:51:34;12.40;99.90
38726;DHT22;24474;48.906;8.808;2023-03-19T16:54:32;12.40;99.90
38726;DHT22;24474;48.906;8.808;2023-03-19T16:57:02;12.30;99.90
38726;DHT22;24474;48.906;8.808;2023-03-19T16:59:45;12.30;99.90
38726;DHT22;24474;48.906;8.808;2023-03-19T17:02:16;12.30;99.90
38726;DHT22;24474;48.906;8.808;2023-03-19T17:04:51;12.20;99.90
38726;DHT22;24474;48.906;8.808;2023-03-19T17:07:23;12.20;99.90
38726;DHT22;24474;48.906;8.808;2023-03-19T17:09:56;12.30;99.90
38726;DHT22;24474;48.906;8.808;2023-03-19T17:12:26;12.20;99.90
38726;DHT22;24474;48.906;8.808;2023-03-19T17:14:56;12.20;99.90
38726;DHT22;24474;48.906;8.808;2023-03-19T17:17:27;12.20;99.90
38726;DHT22;24474;48.906;8.808;2023-03-19T17:19:53;12.20;99.90
38726;DHT22;24474;48.906;8.808;2023-03-19T17:22:23;12.20;99.90
38726;DHT22;24474;48.906;8.808;2023-03-19T17:24:52;12.20;99.90
38726;DHT22;24474;48.906;8.808;2023-03-19T17:27:33;12.10;99.90
38726;DHT22;24474;48.906;8.808;2023-03-19T17:30:01;12.10;99.90
38726;DHT22;24474;48.906;8.808;2023-03-19T17:32:29;12.10;99.90
38726;DHT22;24474;48.906;8.808;2023-03-19T17:34:57;12.10;99.90
38726;DHT22;24474;48.906;8.808;2023-03-19T17:37:33;12.10;99.90
38726;DHT22;24474;48.906;8.808;2023-03-19T17:40:05;12.00;99.90
38726;DHT22;24474;48.906;8.808;2023-03-19T17:42:38;12.00;99.90
38726;DHT22;24474;48.906;8.808;2023-03-19T17:45:26;11.90;99.90
38726;DHT22;24474;48.906;8.808;2023-03-19T17:47:56;11.90;99.90
38726;DHT22;24474;48.906;8.808;2023-03-19T17:50:26;11.80;99.90
38726;DHT22;24474;48.906;8.808;2023-03-19T17:52:58;11.90;99.90
38726;DHT22;24474;48.906;8.808;2023-03-19T17:55:36;11.80;99.90
38726;DHT22;24474;48.906;8.808;2023-03-19T17:58:03;11.80;99.90
38726;DHT22;24474;48.906;8.808;2023-03-19T18:00:30;11.80;99.90
38726;DHT22;24474;48.906;8.808;2023-03-19T18:03:17;11.80;99.90
38726;DHT22;24474;48.906;8.808;2023-03-19T18:05:44;11.80;99.90
38726;DHT22;24474;48.906;8.808;2023-03-19T18:08:20;11.80;99.90